Airfield :
LOGIN :

Register | Disclaimer

   EN    FR    IT 

 










Legend :    VFR   Marginal VFR   IFR   Intensive IFR   Very Intensive IFR
Visi :
Ceiling :
>= 8 km
>= 3000ft
5 to 8 km
1000 to 3000 ft
1500m to 5 km
500 to 1000 ft
800 to 1500m
200 to 500 ft
< 800m
< 200 ft
Symbols :   Thunderstorms  Fog  Heavy snow  Heavy precipitations  Wind > 20 kt
SIGMETs :     Misc.  Thunderstorms  Icing  Turbulence  Mountain Waves  Volcanic Ashes







- Airport Elevation : 870 ft
- IATA code : ETZ
- Download approach charts


LFJL - Metz Nancy Lorraine

CURRENT METAR :
  • 230700Z AUTO 25003KT 5000 BR FEW003 04/04 Q1031 TEMPO 1200 BCFG VV///

EXPIRED METARs :
  • 230630Z AUTO 00000KT 0300 0150 R22/0200N R04/P2000 FG VV/// 03/03 Q1031 BECMG 6000 NSW NSC
  • 230600Z AUTO 00000KT 3900 0350 R22/0400D R04/P2000 BCFG BKN004 BKN240 03/03 Q1030 TEMPO 1200 BCFG BECMG NSC
  • 230530Z AUTO 23005KT 4000 BR NSC 04/04 Q1030 TEMPO 1200 BCFG
  • 230500Z AUTO 20004KT 2700 0300 R22/P2000 R04/0375N BCFG NSC 03/03 Q1030 TEMPO 3000 BCFG
  • 230430Z AUTO 30002KT 4300 0300 R22/P2000 R04/0375D BCFG NSC 03/03 Q1031 NOSIG

TAF AMD TAF LFJL
Valid from the 23 at 06:00 until the 24 at 06:00 UTC


230649Z 2306/2406 VRB03KT 6000 NSC
TEMPO 2306/2308 0300 BCFG VV///
BECMG 2309/2311 27011KT CAVOK
TEMPO 2312/2317 26012G22KT
BECMG 2400/2403 FEW010 OVC015
TEMPO 2403/2406 OVC009
No reported NOTAMs for that airfield.



MET'MAP, your aeronautical weather chart ! - Copyright ORBIFLY December 2007 - Disclaimer

ORBIFLY MET'MAP TEAM :

Programming & Development : Alexandra Zaïnal
Concept & Development : Baudouin d'Aumeries
Co-Development & Prog : Marc-Olivier Méhu
Technical & hardware support : Manuel Goepfert

Contact : metmap@orbifly.com




SOURCES & CREDITS :

   NOAA